createdAt,value
2022-08-23T00:01:57.284Z,6.33
2022-08-23T00:04:32.189Z,6.13
2022-08-23T00:07:02.734Z,5.37
2022-08-23T00:09:29.551Z,5.80
2022-08-23T00:12:21.384Z,5.87
2022-08-23T00:14:52.639Z,6.03
2022-08-23T00:17:33.356Z,6.33
2022-08-23T00:20:04.312Z,7.30
2022-08-23T00:22:31.055Z,5.80
2022-08-23T00:24:57.806Z,6.60
2022-08-23T00:27:24.552Z,6.20
2022-08-23T00:29:53.622Z,6.27
2022-08-23T00:32:24.272Z,6.43
2022-08-23T00:34:51.819Z,6.43
2022-08-23T00:37:20.004Z,6.10
2022-08-23T00:39:47.111Z,5.73
2022-08-23T00:42:48.806Z,5.93
2022-08-23T00:45:37.958Z,6.07
2022-08-23T00:48:06.444Z,6.00
2022-08-23T00:51:02.095Z,6.13
2022-08-23T00:53:32.891Z,6.10
2022-08-23T00:56:03.402Z,5.77
2022-08-23T00:58:31.173Z,5.67
2022-08-23T01:01:01.388Z,6.00
2022-08-23T01:03:38.491Z,6.20
2022-08-23T01:06:20.166Z,6.50
2022-08-23T01:08:55.883Z,7.00
2022-08-23T01:11:50.039Z,6.50
2022-08-23T01:14:25.800Z,6.60
2022-08-23T01:17:20.423Z,7.07
2022-08-23T01:20:08.480Z,6.50
2022-08-23T01:22:58.672Z,6.80
2022-08-23T01:25:29.099Z,7.10
2022-08-23T01:27:57.316Z,7.33
2022-08-23T01:30:29.509Z,7.57
2022-08-23T01:32:59.752Z,7.53
2022-08-23T01:35:49.686Z,7.63
2022-08-23T01:38:16.804Z,7.33
2022-08-23T01:40:44.987Z,7.07
2022-08-23T01:43:13.488Z,7.03
2022-08-23T01:45:42.395Z,6.70
2022-08-23T01:48:11.472Z,6.17
2022-08-23T01:50:38.888Z,6.37
2022-08-23T01:53:07.860Z,5.90
2022-08-23T01:55:35.600Z,7.50
2022-08-23T01:58:05.348Z,6.67
2022-08-23T02:00:36.778Z,6.73
2022-08-23T02:03:05.095Z,7.20
2022-08-23T02:05:32.141Z,7.60
2022-08-23T02:08:22.079Z,7.50
2022-08-23T02:10:50.931Z,7.83
2022-08-23T02:13:18.688Z,7.37
2022-08-23T02:15:47.093Z,6.83
2022-08-23T02:18:14.225Z,6.60
2022-08-23T02:20:48.960Z,6.53
2022-08-23T02:23:16.539Z,7.37
2022-08-23T02:25:43.767Z,6.80
2022-08-23T02:28:11.762Z,7.73
2022-08-23T02:30:40.024Z,7.53
2022-08-23T02:33:09.577Z,7.57
2022-08-23T02:35:38.672Z,7.80
2022-08-23T02:38:07.502Z,7.13
2022-08-23T02:40:35.583Z,7.97
2022-08-23T02:43:03.137Z,7.53
2022-08-23T02:45:31.064Z,8.07
2022-08-23T02:47:59.766Z,7.90
2022-08-23T02:50:34.715Z,7.87
2022-08-23T02:53:04.327Z,7.63
2022-08-23T02:55:32.722Z,8.00
2022-08-23T02:57:59.697Z,7.90
2022-08-23T03:00:27.225Z,8.17
2022-08-23T03:02:54.145Z,7.90
2022-08-23T03:05:22.129Z,8.20
2022-08-23T03:07:49.194Z,8.03
2022-08-23T03:10:16.933Z,7.17
2022-08-23T03:12:50.110Z,6.93
2022-08-23T03:15:16.898Z,7.47
2022-08-23T03:17:43.699Z,7.17
2022-08-23T03:20:11.179Z,7.50
2022-08-23T03:22:38.175Z,7.13
2022-08-23T03:25:06.264Z,6.93
2022-08-23T03:27:45.589Z,7.83
2022-08-23T03:30:17.778Z,7.30
2022-08-23T03:32:51.000Z,7.20
2022-08-23T03:35:18.220Z,7.60
2022-08-23T03:37:45.236Z,7.37
2022-08-23T03:40:13.935Z,7.77
2022-08-23T03:42:40.721Z,7.73
2022-08-23T03:45:07.938Z,7.80
2022-08-23T03:47:35.919Z,7.00
2022-08-23T03:50:02.838Z,7.70
2022-08-23T03:52:30.658Z,7.23
2022-08-23T03:54:58.760Z,7.30
2022-08-23T03:57:28.440Z,6.90
2022-08-23T03:59:55.554Z,6.90
2022-08-23T04:02:24.243Z,7.10
2022-08-23T04:04:51.004Z,7.27
2022-08-23T04:07:39.004Z,6.70
2022-08-23T04:10:09.104Z,7.83
2022-08-23T04:12:38.291Z,7.90
2022-08-23T04:15:13.430Z,7.13
2022-08-23T04:17:40.910Z,7.13
2022-08-23T04:20:08.298Z,7.57
2022-08-23T04:22:41.857Z,8.10
2022-08-23T04:25:12.295Z,7.13
2022-08-23T04:27:56.269Z,7.70
2022-08-23T04:30:23.196Z,7.57
2022-08-23T04:32:50.750Z,7.77
2022-08-23T04:35:18.256Z,7.60
2022-08-23T04:37:45.741Z,7.70
2022-08-23T04:40:31.472Z,7.40
2022-08-23T04:42:58.775Z,7.10
2022-08-23T04:45:27.165Z,7.07
2022-08-23T04:47:54.938Z,7.47
2022-08-23T04:50:22.340Z,7.13
2022-08-23T04:53:12.027Z,6.70
2022-08-23T04:55:50.616Z,7.53
2022-08-23T04:58:18.194Z,7.13
2022-08-23T05:00:51.540Z,7.27
2022-08-23T05:03:23.323Z,7.73
2022-08-23T05:05:50.127Z,7.60
2022-08-23T05:08:19.247Z,7.70
2022-08-23T05:10:47.124Z,8.13
2022-08-23T05:13:14.859Z,6.73
2022-08-23T05:15:42.311Z,7.27
2022-08-23T05:18:09.185Z,7.20
2022-08-23T05:20:36.648Z,7.57
2022-08-23T05:23:04.816Z,7.63
2022-08-23T05:25:52.935Z,8.30
2022-08-23T05:28:34.451Z,7.60
2022-08-23T05:31:06.875Z,6.93
2022-08-23T05:33:48.498Z,7.03
2022-08-23T05:36:22.070Z,7.70
2022-08-23T05:38:50.430Z,7.17
2022-08-23T05:41:21.153Z,6.57
2022-08-23T05:43:49.436Z,6.93
2022-08-23T05:46:19.838Z,6.50
2022-08-23T05:48:55.596Z,6.77
2022-08-23T05:51:27.911Z,7.23
2022-08-23T05:53:59.017Z,7.63
2022-08-23T05:56:31.527Z,7.17
2022-08-23T05:59:04.066Z,7.60
2022-08-23T06:01:31.549Z,7.90
2022-08-23T06:04:06.949Z,7.67
2022-08-23T06:06:34.880Z,8.30
2022-08-23T06:09:05.629Z,7.80
2022-08-23T06:11:33.104Z,7.37
2022-08-23T06:14:02.630Z,7.57
2022-08-23T06:16:43.719Z,8.60
2022-08-23T06:19:14.206Z,9.77
2022-08-23T06:21:47.195Z,9.40
2022-08-23T06:24:16.463Z,9.50
2022-08-23T06:26:51.519Z,9.43
2022-08-23T06:29:20.104Z,9.63
2022-08-23T06:31:52.208Z,9.70
2022-08-23T06:34:34.541Z,10.50
2022-08-23T06:37:20.080Z,10.00
2022-08-23T06:40:07.204Z,10.80
2022-08-23T06:42:42.106Z,10.23
2022-08-23T06:45:09.777Z,10.07
2022-08-23T06:47:41.120Z,10.77
2022-08-23T06:50:09.314Z,10.67
2022-08-23T06:53:11.300Z,10.50
2022-08-23T06:56:00.676Z,10.80
2022-08-23T06:58:36.002Z,10.40
2022-08-23T07:01:45.262Z,11.07
2022-08-23T07:04:29.274Z,11.07
2022-08-23T07:07:22.469Z,9.97
2022-08-23T07:09:49.422Z,11.43
2022-08-23T07:12:19.770Z,11.20
2022-08-23T07:14:46.840Z,9.97
2022-08-23T07:17:14.407Z,11.13
2022-08-23T07:19:44.080Z,11.40
2022-08-23T07:22:11.252Z,12.40
2022-08-23T07:24:38.374Z,12.20
2022-08-23T07:27:08.626Z,10.13
2022-08-23T07:29:42.093Z,12.87
2022-08-23T07:32:10.125Z,11.37
2022-08-23T07:34:37.429Z,11.87
2022-08-23T07:37:11.274Z,11.67
2022-08-23T07:39:43.226Z,12.10
2022-08-23T07:42:23.666Z,11.80
2022-08-23T07:44:53.987Z,12.10
2022-08-23T07:47:22.790Z,12.40
2022-08-23T07:49:49.663Z,13.37
2022-08-23T07:52:16.499Z,12.97
2022-08-23T07:54:48.229Z,11.57
2022-08-23T07:57:42.536Z,13.03
2022-08-23T08:00:35.800Z,12.63
2022-08-23T08:03:28.713Z,13.63
2022-08-23T08:06:12.795Z,11.57
2022-08-23T08:08:42.046Z,12.57
2022-08-23T08:11:12.005Z,11.30
2022-08-23T08:13:43.024Z,11.77
2022-08-23T08:16:11.103Z,11.87
2022-08-23T08:18:40.552Z,12.03
2022-08-23T08:21:26.970Z,11.00
2022-08-23T08:24:32.252Z,11.33
2022-08-23T08:27:04.627Z,10.87
2022-08-23T08:29:32.587Z,9.47
2022-08-23T08:31:59.604Z,10.50
2022-08-23T08:34:26.492Z,10.33
2022-08-23T08:36:57.294Z,9.70
2022-08-23T08:39:30.104Z,9.10
2022-08-23T08:42:20.915Z,9.63
2022-08-23T08:44:55.692Z,8.80
2022-08-23T08:47:47.324Z,9.10
2022-08-23T08:50:27.483Z,8.10
2022-08-23T08:53:11.759Z,8.23
2022-08-23T08:56:21.677Z,6.90
2022-08-23T08:59:01.348Z,8.77
2022-08-23T09:01:35.122Z,8.93
2022-08-23T09:04:03.652Z,7.57
2022-08-23T09:07:05.068Z,8.30
2022-08-23T09:09:56.115Z,7.33
2022-08-23T09:12:49.343Z,7.23
2022-08-23T09:15:42.565Z,7.13
2022-08-23T09:18:13.187Z,7.43
2022-08-23T09:20:43.180Z,7.50
2022-08-23T09:23:19.407Z,7.50
2022-08-23T09:25:54.745Z,6.87
2022-08-23T09:28:34.829Z,7.07
2022-08-23T09:31:02.517Z,7.70
2022-08-23T09:33:43.422Z,7.33
2022-08-23T09:36:37.244Z,8.60
2022-08-23T09:39:24.348Z,7.63
2022-08-23T09:42:00.866Z,8.30
2022-08-23T09:44:39.914Z,7.47
2022-08-23T09:47:16.843Z,7.20
2022-08-23T09:49:51.971Z,7.47
2022-08-23T09:52:33.676Z,8.30
2022-08-23T09:55:11.733Z,8.20
2022-08-23T09:57:48.037Z,7.60
2022-08-23T10:00:17.572Z,7.93
2022-08-23T10:02:50.353Z,8.27
2022-08-23T10:05:40.231Z,6.27
2022-08-23T10:08:27.315Z,6.00
2022-08-23T10:11:24.463Z,5.70
2022-08-23T10:13:52.833Z,5.87
2022-08-23T10:16:41.424Z,4.80
2022-08-23T10:19:34.760Z,4.63
2022-08-23T10:22:18.603Z,4.20
2022-08-23T10:25:12.866Z,4.53
2022-08-23T10:28:14.747Z,4.50
2022-08-23T10:30:56.759Z,4.30
2022-08-23T10:33:32.263Z,3.97
2022-08-23T10:36:22.805Z,3.40
2022-08-23T10:39:09.057Z,4.45
2022-08-23T10:42:09.791Z,3.78
2022-08-23T10:44:51.215Z,3.30
2022-08-23T10:47:43.991Z,3.13
2022-08-23T10:50:20.329Z,2.95
2022-08-23T10:52:56.869Z,3.50
2022-08-23T10:55:36.905Z,2.75
2022-08-23T10:58:07.978Z,2.70
2022-08-23T11:00:36.668Z,2.78
2022-08-23T11:03:45.071Z,3.47
2022-08-23T11:06:26.200Z,3.00
2022-08-23T11:09:25.906Z,2.65
2022-08-23T11:12:12.122Z,2.97
2022-08-23T11:15:25.194Z,3.15
2022-08-23T11:18:00.910Z,3.17
2022-08-23T11:20:50.863Z,3.20
2022-08-23T11:23:45.047Z,2.90
2022-08-23T11:26:39.784Z,3.80
2022-08-23T11:29:07.318Z,3.35
2022-08-23T11:31:42.856Z,4.15
2022-08-23T11:34:33.592Z,3.60
2022-08-23T11:37:19.133Z,2.90
2022-08-23T11:39:57.706Z,3.05
2022-08-23T11:42:38.547Z,3.63
2022-08-23T11:45:47.881Z,3.38
2022-08-23T11:48:19.363Z,2.85
2022-08-23T11:51:14.049Z,3.28
2022-08-23T11:53:46.568Z,3.30
2022-08-23T11:56:16.380Z,3.65
2022-08-23T11:59:01.247Z,3.72
2022-08-23T12:01:33.892Z,3.28
2022-08-23T12:04:11.529Z,3.00
2022-08-23T12:06:50.517Z,3.08
2022-08-23T12:09:23.767Z,2.92
2022-08-23T12:11:56.514Z,2.90
2022-08-23T12:14:36.931Z,3.08
2022-08-23T12:17:12.822Z,2.90
2022-08-23T12:19:46.461Z,2.92
2022-08-23T12:22:19.388Z,3.17
2022-08-23T12:24:59.750Z,2.70
2022-08-23T12:27:52.385Z,2.90
2022-08-23T12:30:25.088Z,2.55
2022-08-23T12:32:58.468Z,2.67
2022-08-23T12:36:00.581Z,2.75
2022-08-23T12:38:42.808Z,2.42
2022-08-23T12:41:25.824Z,2.65
2022-08-23T12:44:03.150Z,2.65
2022-08-23T12:46:49.798Z,2.67
2022-08-23T12:49:24.604Z,2.70
2022-08-23T12:51:54.015Z,2.72
2022-08-23T12:54:23.952Z,2.70
2022-08-23T12:56:53.943Z,2.30
2022-08-23T12:59:50.536Z,2.78
2022-08-23T13:02:30.513Z,2.53
2022-08-23T13:05:04.615Z,2.80
2022-08-23T13:07:32.184Z,2.80
2022-08-23T13:09:59.276Z,2.47
2022-08-23T13:12:26.931Z,2.88
2022-08-23T13:14:55.327Z,2.63
2022-08-23T13:17:32.562Z,2.55
2022-08-23T13:20:02.361Z,2.60
2022-08-23T13:22:31.331Z,2.60
2022-08-23T13:27:55.949Z,2.85
2022-08-23T13:30:26.435Z,2.63
2022-08-23T13:33:13.109Z,2.40
2022-08-23T13:35:45.636Z,2.78
2022-08-23T13:38:19.911Z,2.70
2022-08-23T13:41:12.404Z,3.03
2022-08-23T13:43:39.108Z,2.45
2022-08-23T13:46:22.184Z,2.60
2022-08-23T13:49:05.722Z,2.85
2022-08-23T13:51:37.015Z,3.00
2022-08-23T13:54:08.585Z,3.00
2022-08-23T13:56:47.368Z,2.65
2022-08-23T13:59:31.600Z,2.20
2022-08-23T14:02:04.736Z,2.58
2022-08-23T14:04:31.869Z,2.10
2022-08-23T14:06:58.603Z,2.22
2022-08-23T14:09:25.360Z,2.25
2022-08-23T14:11:57.070Z,2.20
2022-08-23T14:14:24.421Z,2.40
2022-08-23T14:16:53.580Z,2.42
2022-08-23T14:22:07.107Z,2.35
2022-08-23T14:24:33.924Z,2.20
2022-08-23T14:27:01.276Z,1.98
2022-08-23T14:29:28.655Z,2.08
2022-08-23T14:31:57.659Z,1.90
2022-08-23T14:34:25.275Z,2.10
2022-08-23T14:39:40.318Z,2.22
2022-08-23T14:42:07.734Z,2.65
2022-08-23T14:44:36.186Z,2.25
2022-08-23T14:47:04.946Z,2.38
2022-08-23T14:49:31.829Z,1.90
2022-08-23T14:51:58.901Z,1.80
2022-08-23T14:54:26.659Z,1.98
2022-08-23T14:56:54.172Z,3.00
2022-08-23T14:59:21.737Z,2.65
2022-08-23T15:01:50.207Z,2.40
2022-08-23T15:04:20.290Z,2.20
2022-08-23T15:07:13.868Z,1.98
2022-08-23T15:09:34.715Z,2.28
2022-08-23T15:14:48.634Z,2.20
2022-08-23T15:17:15.952Z,1.85
2022-08-23T15:19:42.875Z,2.08
2022-08-23T15:22:21.579Z,2.40
2022-08-23T15:24:49.245Z,1.80
2022-08-23T15:27:17.919Z,2.13
2022-08-23T15:29:44.778Z,1.80
2022-08-23T15:32:12.708Z,2.10
2022-08-23T15:34:46.422Z,2.17
2022-08-23T15:37:14.321Z,2.35
2022-08-23T15:39:42.330Z,1.85
2022-08-23T15:42:09.548Z,2.10
2022-08-23T15:44:36.535Z,2.38
2022-08-23T15:47:06.208Z,2.25
2022-08-23T15:49:36.392Z,2.20
2022-08-23T15:52:04.137Z,2.40
2022-08-23T15:54:31.025Z,2.00
2022-08-23T15:56:57.843Z,2.00
2022-08-23T15:59:25.036Z,2.50
2022-08-23T16:01:51.983Z,2.65
2022-08-23T16:04:19.150Z,2.40
2022-08-23T16:06:46.122Z,2.47
2022-08-23T16:09:20.078Z,2.17
2022-08-23T16:11:46.863Z,2.45
2022-08-23T16:14:13.800Z,2.38
2022-08-23T16:16:42.039Z,2.20
2022-08-23T16:19:09.754Z,2.47
2022-08-23T16:21:36.801Z,2.35
2022-08-23T16:24:04.467Z,2.22
2022-08-23T16:26:37.229Z,2.90
2022-08-23T16:29:10.348Z,3.58
2022-08-23T16:31:39.705Z,2.55
2022-08-23T16:34:16.274Z,2.28
2022-08-23T16:36:46.531Z,2.28
2022-08-23T16:39:15.696Z,2.60
2022-08-23T16:41:42.746Z,2.42
2022-08-23T16:44:10.011Z,4.85
2022-08-23T16:46:41.098Z,2.53
2022-08-23T16:49:09.062Z,2.13
2022-08-23T16:51:35.816Z,2.03
2022-08-23T16:54:03.654Z,2.47
2022-08-23T16:56:31.971Z,2.28
2022-08-23T16:58:59.124Z,2.50
2022-08-23T17:01:26.734Z,2.50
2022-08-23T17:03:53.644Z,2.35
2022-08-23T17:06:20.820Z,2.58
2022-08-23T17:08:48.162Z,2.60
2022-08-23T17:11:20.099Z,2.50
2022-08-23T17:13:47.400Z,2.45
2022-08-23T17:16:14.313Z,2.67
2022-08-23T17:18:41.168Z,2.67
2022-08-23T17:21:09.142Z,2.92
2022-08-23T17:23:40.356Z,2.55
2022-08-23T17:26:09.306Z,2.22
2022-08-23T17:28:36.348Z,2.30
2022-08-23T17:31:04.133Z,2.50
2022-08-23T17:33:30.959Z,2.65
2022-08-23T17:35:57.885Z,2.28
2022-08-23T17:38:24.687Z,2.50
2022-08-23T17:40:52.298Z,2.80
2022-08-23T17:43:19.341Z,2.58
2022-08-23T17:45:48.674Z,2.55
2022-08-23T17:48:18.004Z,2.70
2022-08-23T17:50:46.114Z,2.90
2022-08-23T17:53:14.439Z,2.90
2022-08-23T17:55:42.010Z,2.60
2022-08-23T17:58:10.424Z,2.63
2022-08-23T18:00:39.693Z,2.60
2022-08-23T18:03:06.975Z,2.53
2022-08-23T18:05:35.183Z,3.03
2022-08-23T18:08:03.951Z,3.17
2022-08-23T18:10:31.047Z,3.50
2022-08-23T18:12:58.551Z,3.70
2022-08-23T18:15:26.849Z,3.22
2022-08-23T18:17:57.440Z,3.70
2022-08-23T18:20:27.025Z,3.05
2022-08-23T18:22:55.381Z,3.33
2022-08-23T18:25:22.520Z,3.22
2022-08-23T18:28:08.269Z,3.60
2022-08-23T18:30:38.044Z,3.55
2022-08-23T18:33:06.426Z,3.77
2022-08-23T18:35:34.052Z,3.33
2022-08-23T18:38:01.244Z,3.63
2022-08-23T18:40:29.126Z,3.80
2022-08-23T18:42:57.060Z,4.17
2022-08-23T18:45:24.343Z,4.53
2022-08-23T18:47:51.160Z,4.40
2022-08-23T18:50:18.413Z,3.80
2022-08-23T18:52:45.211Z,4.33
2022-08-23T18:55:12.174Z,3.70
2022-08-23T18:57:39.101Z,3.60
2022-08-23T19:00:07.825Z,4.63
2022-08-23T19:02:35.595Z,4.43
2022-08-23T19:05:03.254Z,4.03
2022-08-23T19:07:30.243Z,4.30
2022-08-23T19:09:57.145Z,3.97
2022-08-23T19:12:24.152Z,4.40
2022-08-23T19:14:50.996Z,3.20
2022-08-23T19:17:17.739Z,4.47
2022-08-23T19:19:44.739Z,4.77
2022-08-23T19:22:12.582Z,5.10
2022-08-23T19:24:39.579Z,5.13
2022-08-23T19:27:07.127Z,4.83
2022-08-23T19:29:34.543Z,5.77
2022-08-23T19:32:02.625Z,4.80
2022-08-23T19:34:29.843Z,5.37
2022-08-23T19:37:01.127Z,7.67
2022-08-23T19:39:29.123Z,7.87
2022-08-23T19:41:55.923Z,6.50
2022-08-23T19:44:23.100Z,6.30
2022-08-23T19:46:50.075Z,7.03
2022-08-23T19:49:17.364Z,7.10
2022-08-23T19:51:44.603Z,6.90
2022-08-23T19:54:12.723Z,7.13
2022-08-23T19:56:54.735Z,6.43
2022-08-23T19:59:27.773Z,6.67
2022-08-23T20:01:55.729Z,7.30
2022-08-23T20:04:24.091Z,7.20
2022-08-23T20:06:51.205Z,8.30
2022-08-23T20:09:19.445Z,8.87
2022-08-23T20:11:46.654Z,8.00
2022-08-23T20:14:13.626Z,7.97
2022-08-23T20:16:42.191Z,6.30
2022-08-23T20:19:10.776Z,6.27
2022-08-23T20:21:38.420Z,6.47
2022-08-23T20:24:06.038Z,6.23
2022-08-23T20:26:40.549Z,6.33
2022-08-23T20:29:10.210Z,7.30
2022-08-23T20:31:46.029Z,6.83
2022-08-23T20:34:13.287Z,6.80
2022-08-23T20:36:40.143Z,6.60
2022-08-23T20:39:06.972Z,6.30
2022-08-23T20:41:35.788Z,6.97
2022-08-23T20:44:03.248Z,6.47
2022-08-23T20:46:30.416Z,6.80
2022-08-23T20:48:57.817Z,6.10
2022-08-23T20:51:26.150Z,6.47
2022-08-23T20:53:53.135Z,7.20
2022-08-23T20:56:20.476Z,5.60
2022-08-23T20:58:47.683Z,5.73
2022-08-23T21:01:15.777Z,6.23
2022-08-23T21:03:43.152Z,6.10
2022-08-23T21:06:35.570Z,8.00
2022-08-23T21:09:02.340Z,6.40
2022-08-23T21:11:29.774Z,6.03
2022-08-23T21:13:58.439Z,6.07
2022-08-23T21:16:26.299Z,6.00
2022-08-23T21:18:55.539Z,6.13
2022-08-23T21:21:26.382Z,5.97
2022-08-23T21:23:54.043Z,6.30
2022-08-23T21:26:22.132Z,5.77
2022-08-23T21:28:49.927Z,6.37
2022-08-23T21:31:19.542Z,6.07
2022-08-23T21:33:46.978Z,6.30
2022-08-23T21:36:14.733Z,6.53
2022-08-23T21:38:41.531Z,7.50
2022-08-23T21:41:11.807Z,6.83
2022-08-23T21:43:39.744Z,7.20
2022-08-23T21:46:07.195Z,6.57
2022-08-23T21:48:34.389Z,6.77
2022-08-23T21:51:01.590Z,6.83
2022-08-23T21:53:28.588Z,7.17
2022-08-23T21:55:55.306Z,6.50
2022-08-23T21:58:22.047Z,7.33
2022-08-23T22:00:49.094Z,7.17
2022-08-23T22:03:15.976Z,7.13
2022-08-23T22:05:44.587Z,6.73
2022-08-23T22:08:14.329Z,6.50
2022-08-23T22:10:44.831Z,6.60
2022-08-23T22:13:23.943Z,6.87
2022-08-23T22:15:50.823Z,6.20
2022-08-23T22:18:17.608Z,5.97
2022-08-23T22:20:44.372Z,6.53
2022-08-23T22:23:11.348Z,6.40
2022-08-23T22:25:38.562Z,6.30
2022-08-23T22:28:05.296Z,6.47
2022-08-23T22:30:32.076Z,6.47
2022-08-23T22:32:58.844Z,7.00
2022-08-23T22:35:25.736Z,7.23
2022-08-23T22:38:12.091Z,6.53
2022-08-23T22:40:39.443Z,7.73
2022-08-23T22:43:06.984Z,7.77
2022-08-23T22:45:34.188Z,7.17
2022-08-23T22:48:01.092Z,7.77
2022-08-23T22:50:28.155Z,8.43
2022-08-23T22:52:54.891Z,7.83
2022-08-23T22:55:21.666Z,7.90
2022-08-23T22:57:48.543Z,7.23
2022-08-23T23:00:16.112Z,6.67
2022-08-23T23:02:43.188Z,7.17
2022-08-23T23:05:09.925Z,7.43
2022-08-23T23:07:55.223Z,7.97
2022-08-23T23:10:21.968Z,7.47
2022-08-23T23:12:48.703Z,7.33
2022-08-23T23:15:15.500Z,7.40
2022-08-23T23:17:42.436Z,7.50
2022-08-23T23:20:28.356Z,7.33
2022-08-23T23:22:55.268Z,7.37
2022-08-23T23:25:22.166Z,7.53
2022-08-23T23:27:48.899Z,7.43
2022-08-23T23:30:16.313Z,7.20
2022-08-23T23:32:43.372Z,7.90
2022-08-23T23:35:10.548Z,7.47
2022-08-23T23:37:37.947Z,7.27
2022-08-23T23:40:06.515Z,7.87
2022-08-23T23:42:33.325Z,7.70
2022-08-23T23:45:00.740Z,7.63
2022-08-23T23:47:27.532Z,6.80
2022-08-23T23:49:54.305Z,7.03
2022-08-23T23:52:21.051Z,7.90
2022-08-23T23:54:47.791Z,7.13
2022-08-23T23:57:14.564Z,7.73
2022-08-23T23:59:41.598Z,7.60
